Juan De La Cosa — ECJE — position and weather

sailwx.info

Track history (hours):
 
Tides and Currents Weather Stations Pressure Air Temp Water Temp Dewpoint Dewpoint Depression Visibility Wind Speed Wind Dir Waves Ship Positions

Juan De La Cosa

Last reported at 2015-Jan-27 18:33 UTC. Time now 2015-Mar-03 03:14 UTC.
Position N 36°12' W 022°42'.
Warning: this ship's position is 34 days out of date.

Length 75 m; draft 4.5 m.

Type: Medical transport. MMSI: 224612000.

Date/timePositionNaut miles runAvg speedWind from/ knotsBaromVisibWave heightAir tempDewpointWater temp
2015-Jan-27 18:33N 36°12' W 022°42'1413.1
2015-Jan-27 17:30N 35°59' W 022°44'1413.3
2015-Jan-27 16:29N 35°45' W 022°46'1413.1
2015-Jan-27 15:23N 35°31' W 022°48'1713.1
2015-Jan-27 14:06N 35°14' W 022°51'813.2
2015-Jan-27 13:30N 35°06' W 022°53'1313.2
2015-Jan-27 12:31N 34°54' W 022°55'36 5.1
2015-Jan-27 05:31N 35°10' W 023°34'31 7.3
2015-Jan-27 01:16N 35°32' W 024°01'6 7.2
2015-Jan-27 00:30N 35°36' W 024°06'7 7.3
2015-Jan-26 23:31N 35°41' W 024°12'7 7.5
2015-Jan-26 22:32N 35°45' W 024°19'10 7.8
2015-Jan-26 21:11N 35°53' W 024°28'5 7.7
2015-Jan-26 20:31N 35°56' W 024°33'8 7.9
2015-Jan-26 19:33N 36°02' W 024°39'8 8.0
2015-Jan-26 18:33N 36°07' W 024°47'8 7.7
2015-Jan-26 17:33N 36°12' W 024°54'8 7.7
2015-Jan-26 16:33N 36°18' W 025°00'8 7.6
2015-Jan-26 15:33N 36°23' W 025°07'7 7.4
2015-Jan-26 14:33N 36°28' W 025°14'8 7.8
2015-Jan-26 13:33N 36°34' W 025°21'8 7.8
2015-Jan-26 12:33N 36°39' W 025°28'8 7.7
2015-Jan-26 11:33N 36°44' W 025°35'8 7.9
2015-Jan-26 10:33N 36°49' W 025°43'8 8.0
2015-Jan-26 09:33N 36°55' W 025°50'8 8.0
2015-Jan-26 08:33N 37°00' W 025°57'8 7.7
2015-Jan-26 07:34N 37°06' W 026°04'8 7.7
2015-Jan-26 06:33N 37°11' W 026°11'8 8.0
2015-Jan-26 05:33N 37°16' W 026°19'8 7.9
2015-Jan-26 04:33N 37°22' W 026°25'8 7.7
2015-Jan-26 03:34N 37°27' W 026°32'8 7.9
2015-Jan-26 02:33N 37°33' W 026°39'8 7.8
2015-Jan-26 01:33N 37°38' W 026°47'8 8.2
2015-Jan-26 00:33N 37°44' W 026°54'8 8.0
2015-Jan-25 23:33N 37°50' W 027°01'8 8.0
2015-Jan-25 22:33N 37°55' W 027°09'8 7.9
2015-Jan-25 21:33N 38°01' W 027°16'8 8.0
2015-Jan-25 20:33N 38°06' W 027°23'8 8.3
2015-Jan-25 19:34N 38°12' W 027°31'8 8.2
2015-Jan-25 18:33N 38°18' W 027°38'8 7.8
2015-Jan-25 17:33N 38°23' W 027°45'8 8.0
2015-Jan-25 16:33N 38°28' W 027°54'8 8.0
2015-Jan-25 15:33N 38°31' W 028°03'8 8.1
2015-Jan-25 14:34N 38°34' W 028°13'8 8.0
2015-Jan-25 13:33N 38°36' W 028°22'7 7.3
2015-Jan-25 12:33N 38°37' W 028°32'7 6.8
2015-Jan-25 11:33N 38°32' W 028°36'0 0.3
2015-Jan-25 10:33N 38°31' W 028°36'0 0.3
2015-Jan-25 09:33N 38°32' W 028°36'6 6.0
2015-Jan-25 08:33N 38°26' W 028°38'8 8.3
2015-Jan-25 07:33N 38°18' W 028°41'8 8.3
2015-Jan-25 06:33N 38°10' W 028°44'7 6.8
2015-Jan-25 05:33N 38°03' W 028°47'6 5.7
2015-Jan-25 04:33N 38°09' W 028°44'10 9.9
2015-Jan-25 03:33N 37°59' W 028°47'1110.9
2015-Jan-25 02:33N 37°49' W 028°51'1111.2
2015-Jan-25 01:33N 37°38' W 028°54'1111.1
2015-Jan-25 00:33N 37°27' W 028°58'1110.9
2015-Jan-24 23:34N 37°16' W 029°02'1110.9
2015-Jan-24 22:33N 37°06' W 029°06'1211.2
2015-Jan-24 21:30N 36°55' W 029°09'  
Track history (hours):
 
Tides and Currents Weather Stations Pressure Air Temp Water Temp Dewpoint Dewpoint Depression Visibility Wind Speed Wind Dir Waves Ship Positions

Juan De La Cosa

Last reported at 2015-Jan-27 18:33 UTC. Time now 2015-Mar-03 03:14 UTC.
Position N 36°12' W 022°42'.
Warning: this ship's position is 34 days out of date.

Length 75 m; draft 4.5 m.

Type: Medical transport. MMSI: 224612000.

Date/timePositionNaut miles runAvg speedWind from/ knotsBaromVisibWave heightAir tempDewpointWater temp
2015-Jan-27 18:33N 36°12' W 022°42'1413.1
2015-Jan-27 17:30N 35°59' W 022°44'1413.3
2015-Jan-27 16:29N 35°45' W 022°46'1413.1
2015-Jan-27 15:23N 35°31' W 022°48'1713.1
2015-Jan-27 14:06N 35°14' W 022°51'813.2
2015-Jan-27 13:30N 35°06' W 022°53'1313.2
2015-Jan-27 12:31N 34°54' W 022°55'36 5.1
2015-Jan-27 05:31N 35°10' W 023°34'31 7.3
2015-Jan-27 01:16N 35°32' W 024°01'6 7.2
2015-Jan-27 00:30N 35°36' W 024°06'7 7.3
2015-Jan-26 23:31N 35°41' W 024°12'7 7.5
2015-Jan-26 22:32N 35°45' W 024°19'10 7.8
2015-Jan-26 21:11N 35°53' W 024°28'5 7.7
2015-Jan-26 20:31N 35°56' W 024°33'8 7.9
2015-Jan-26 19:33N 36°02' W 024°39'8 8.0
2015-Jan-26 18:33N 36°07' W 024°47'8 7.7
2015-Jan-26 17:33N 36°12' W 024°54'8 7.7
2015-Jan-26 16:33N 36°18' W 025°00'8 7.6
2015-Jan-26 15:33N 36°23' W 025°07'7 7.4
2015-Jan-26 14:33N 36°28' W 025°14'8 7.8
2015-Jan-26 13:33N 36°34' W 025°21'8 7.8
2015-Jan-26 12:33N 36°39' W 025°28'8 7.7
2015-Jan-26 11:33N 36°44' W 025°35'8 7.9
2015-Jan-26 10:33N 36°49' W 025°43'8 8.0
2015-Jan-26 09:33N 36°55' W 025°50'8 8.0
2015-Jan-26 08:33N 37°00' W 025°57'8 7.7
2015-Jan-26 07:34N 37°06' W 026°04'8 7.7
2015-Jan-26 06:33N 37°11' W 026°11'8 8.0
2015-Jan-26 05:33N 37°16' W 026°19'8 7.9
2015-Jan-26 04:33N 37°22' W 026°25'8 7.7
2015-Jan-26 03:34N 37°27' W 026°32'8 7.9
2015-Jan-26 02:33N 37°33' W 026°39'8 7.8
2015-Jan-26 01:33N 37°38' W 026°47'8 8.2
2015-Jan-26 00:33N 37°44' W 026°54'8 8.0
2015-Jan-25 23:33N 37°50' W 027°01'8 8.0
2015-Jan-25 22:33N 37°55' W 027°09'8 7.9
2015-Jan-25 21:33N 38°01' W 027°16'8 8.0
2015-Jan-25 20:33N 38°06' W 027°23'8 8.3
2015-Jan-25 19:34N 38°12' W 027°31'8 8.2
2015-Jan-25 18:33N 38°18' W 027°38'8 7.8
2015-Jan-25 17:33N 38°23' W 027°45'8 8.0
2015-Jan-25 16:33N 38°28' W 027°54'8 8.0
2015-Jan-25 15:33N 38°31' W 028°03'8 8.1
2015-Jan-25 14:34N 38°34' W 028°13'8 8.0
2015-Jan-25 13:33N 38°36' W 028°22'7 7.3
2015-Jan-25 12:33N 38°37' W 028°32'7 6.8
2015-Jan-25 11:33N 38°32' W 028°36'0 0.3
2015-Jan-25 10:33N 38°31' W 028°36'0 0.3
2015-Jan-25 09:33N 38°32' W 028°36'6 6.0
2015-Jan-25 08:33N 38°26' W 028°38'8 8.3
2015-Jan-25 07:33N 38°18' W 028°41'8 8.3
2015-Jan-25 06:33N 38°10' W 028°44'7 6.8
2015-Jan-25 05:33N 38°03' W 028°47'6 5.7
2015-Jan-25 04:33N 38°09' W 028°44'10 9.9
2015-Jan-25 03:33N 37°59' W 028°47'1110.9
2015-Jan-25 02:33N 37°49' W 028°51'1111.2
2015-Jan-25 01:33N 37°38' W 028°54'1111.1
2015-Jan-25 00:33N 37°27' W 028°58'1110.9
2015-Jan-24 23:34N 37°16' W 029°02'1110.9
2015-Jan-24 22:33N 37°06' W 029°06'1211.2
2015-Jan-24 21:30N 36°55' W 029°09'  

Dump ship's entire track history